Time;durP1;ratioP1;P1;durP2;ratioP2;P2;SDS_P1;SDS_P2;PMS_P1;PMS_P2;Temp;Humidity;BMP_temperature;BMP_pressure;BME280_temperature;BME280_humidity;BME280_pressure;Samples;Min_cycle;Max_cycle;Signal;HPM_P1;HPM_P2
2021/05/14 00:00:54;;;;;;;;;;;;;;;12.55;82.63;98684.78;3523940;28;19967;-48
2021/05/14 00:02:36;;;;;;;;;;;;;;;12.54;82.81;98693.47;3525953;28;20396;-47
2021/05/14 00:04:19;;;;;;;;;;;;;;;12.52;83.26;98690.03;3525880;28;19932;-43
2021/05/14 00:06:00;;;;;;;;;;;;;;;12.50;83.58;98694.38;3526374;28;20381;-47
2021/05/14 00:07:41;;;;;;;;;;;;;;;12.46;84.26;98684.03;3527019;28;19929;-48
2021/05/14 00:09:22;;;;;;;;;;;;;;;12.44;84.29;98685.78;3526587;28;19927;-47
2021/05/14 00:11:03;;;;;;;;;;;;;;;12.42;84.23;98688.41;3527478;28;20316;-47
2021/05/14 00:12:45;;;;;;;;;;;;;;;12.41;84.50;98694.47;3526176;28;20271;-43
2021/05/14 00:14:27;;;;;;;;;;;;;;;12.39;85.17;98691.00;3513528;28;20485;-48
2021/05/14 00:16:09;;;;;;;;;;;;;;;12.37;85.22;98691.03;3525290;28;19931;-43
2021/05/14 00:17:50;;;;;;;;;;;;;;;12.35;85.71;98698.00;3527628;28;19980;-47
2021/05/14 00:19:32;;;;;;;;;;;;;;;12.34;85.81;98690.19;3527086;28;19928;-42
2021/05/14 00:21:13;;;;;;;;;;;;;;;12.33;85.70;98683.25;3525496;28;19927;-42
2021/05/14 00:22:54;;;;;;;;;;;;;;;12.32;85.49;98682.41;3527219;28;19931;-43
2021/05/14 00:24:35;;;;;;;;;;;;;;;12.31;84.83;98683.28;3525801;28;19979;-43
2021/05/14 00:26:16;;;;;;;;;;;;;;;12.31;84.75;98678.09;3527307;28;19927;-43
2021/05/14 00:27:58;;;;;;;;;;;;;;;12.33;84.58;98676.34;3526808;28;19931;-43
2021/05/14 00:29:39;;;;;;;;;;;;;;;12.32;84.08;98672.00;3526729;28;20028;-43
2021/05/14 00:31:21;;;;;;;;;;;;;;;12.33;83.66;98662.44;3526280;28;19984;-43
2021/05/14 00:33:02;;;;;;;;;;;;;;;12.35;83.86;98666.78;3525620;28;19950;-43
2021/05/14 00:34:43;;;;;;;;;;;;;;;12.36;84.65;98665.03;3526383;28;19927;-48
2021/05/14 00:36:25;;;;;;;;;;;;;;;12.37;84.28;98666.75;3525567;28;19934;-42
2021/05/14 00:38:06;;;;;;;;;;;;;;;12.37;83.76;98661.56;3526726;28;20340;-42
2021/05/14 00:39:48;;;;;;;;;;;;;;;12.37;83.61;98667.63;3525733;28;19954;-48
2021/05/14 00:41:29;;;;;;;;;;;;;;;12.37;83.62;98664.16;3525705;28;19932;-49
2021/05/14 00:43:10;;;;;;;;;;;;;;;12.36;83.29;98670.22;3525837;28;20308;-46
2021/05/14 00:44:52;;;;;;;;;;;;;;;12.35;82.62;98663.31;3525650;28;19928;-43
2021/05/14 00:46:34;;;;;;;;;;;;;;;12.34;82.59;98661.59;3524931;28;19927;-43
2021/05/14 00:48:15;;;;;;;;;;;;;;;12.35;82.32;98663.31;3525085;28;19983;-46
2021/05/14 00:49:56;;;;;;;;;;;;;;;12.35;82.59;98658.97;3526583;28;19928;-42
2021/05/14 00:51:38;;;;;;;;;;;;;;;12.36;82.15;98654.63;3524946;28;19939;-42
2021/05/14 00:53:20;;;;;;;;;;;;;;;12.36;82.52;98659.81;3526035;28;20500;-47
2021/05/14 00:55:02;;;;;;;;;;;;;;;12.35;82.34;98652.91;3525968;28;20312;-48
2021/05/14 00:56:43;;;;;;;;;;;;;;;12.36;83.06;98659.81;3525098;28;19970;-49
2021/05/14 00:58:24;;;;;;;;;;;;;;;12.36;83.13;98659.81;3526266;28;19928;-44
2021/05/14 01:00:06;;;;;;;;;;;;;;;12.35;83.60;98658.13;3524948;28;19989;-43
2021/05/14 01:01:48;;;;;;;;;;;;;;;12.34;83.28;98665.03;3526565;28;19932;-50
2021/05/14 01:03:30;;;;;;;;;;;;;;;12.33;83.96;98665.06;3524772;28;19934;-47
2021/05/14 01:05:11;;;;;;;;;;;;;;;12.33;83.42;98659.84;3525435;28;19928;-47
2021/05/14 01:06:52;;;;;;;;;;;;;;;12.34;83.80;98656.38;3526102;28;19928;-43
2021/05/14 01:08:34;;;;;;;;;;;;;;;12.33;83.85;98665.94;3525108;28;20282;-42
2021/05/14 01:10:15;;;;;;;;;;;;;;;12.34;84.08;98659.84;3526032;28;19971;-42
2021/05/14 01:11:56;;;;;;;;;;;;;;;12.33;83.78;98657.25;3524901;28;19971;-43
2021/05/14 01:13:38;;;;;;;;;;;;;;;12.33;83.82;98652.03;3518504;28;20411;-46
2021/05/14 01:15:19;;;;;;;;;;;;;;;12.34;83.58;98661.59;3525293;28;19997;-48
2021/05/14 01:17:02;;;;;;;;;;;;;;;12.34;83.58;98661.59;3525089;28;19935;-46
2021/05/14 01:18:42;;;;;;;;;;;;;;;12.33;83.20;98655.53;3525951;28;19928;-47
2021/05/14 01:20:26;;;;;;;;;;;;;;;12.33;82.97;98654.66;3524927;28;20301;-48
2021/05/14 01:22:07;;;;;;;;;;;;;;;12.33;82.50;98658.13;3526128;28;19950;-47
2021/05/14 01:23:48;;;;;;;;;;;;;;;12.35;82.87;98658.13;3525022;28;19939;-47
2021/05/14 01:25:30;;;;;;;;;;;;;;;12.33;82.33;98657.25;3525602;28;20013;-42
2021/05/14 01:27:11;;;;;;;;;;;;;;;12.33;82.71;98655.53;3524824;28;19928;-43
2021/05/14 01:28:53;;;;;;;;;;;;;;;12.32;81.98;98651.19;3525412;28;19935;-43
2021/05/14 01:30:34;;;;;;;;;;;;;;;12.31;81.56;98651.22;3525836;28;19931;-42
2021/05/14 01:32:16;;;;;;;;;;;;;;;12.31;82.19;98656.41;3524196;28;20400;-42
2021/05/14 01:33:58;;;;;;;;;;;;;;;12.28;81.64;98652.13;3525735;28;19977;-43
2021/05/14 01:35:40;;;;;;;;;;;;;;;12.28;82.02;98649.50;3524625;28;19974;-42
2021/05/14 01:37:21;;;;;;;;;;;;;;;12.28;81.93;98651.25;3525290;28;19927;-43
2021/05/14 01:39:06;;;;;;;;;;;;;;;12.27;81.87;98649.53;3524734;28;19928;-43
2021/05/14 01:40:47;;;;;;;;;;;;;;;12.27;81.80;98649.53;3524523;28;20387;-42
2021/05/14 01:42:28;;;;;;;;;;;;;;;12.27;81.17;98646.91;3525484;28;19932;-43
2021/05/14 01:44:09;;;;;;;;;;;;;;;12.25;81.18;98646.94;3524611;28;19995;-42
2021/05/14 01:45:50;;;;;;;;;;;;;;;12.25;81.44;98643.47;3525538;28;20023;-43
2021/05/14 01:47:32;;;;;;;;;;;;;;;12.26;81.51;98647.78;3524381;28;20329;-42
2021/05/14 01:49:13;;;;;;;;;;;;;;;12.27;81.50;98649.53;3525340;28;19928;-42
2021/05/14 01:50:55;;;;;;;;;;;;;;;12.27;81.51;98644.31;3524662;28;19935;-42
2021/05/14 01:52:36;;;;;;;;;;;;;;;12.27;81.93;98646.91;3524632;28;19927;-42
2021/05/14 01:54:18;;;;;;;;;;;;;;;12.27;81.54;98649.53;3525237;28;19990;-42
2021/05/14 01:55:59;;;;;;;;;;;;;;;12.24;80.82;98639.16;3524287;28;19928;-43
2021/05/14 01:57:40;;;;;;;;;;;;;;;12.26;80.91;98648.66;3525762;28;19927;-42
2021/05/14 01:59:21;;;;;;;;;;;;;;;12.27;80.61;98641.72;3524749;28;19959;-46
2021/05/14 02:01:02;;;;;;;;;;;;;;;12.28;81.53;98641.72;3525714;28;20381;-42
2021/05/14 02:02:44;;;;;;;;;;;;;;;12.27;81.32;98637.38;3523861;28;19927;-48
2021/05/14 02:04:25;;;;;;;;;;;;;;;12.27;80.80;98644.31;3524692;28;19979;-47
2021/05/14 02:06:07;;;;;;;;;;;;;;;12.27;81.12;98639.97;3525052;28;19971;-42
2021/05/14 02:07:48;;;;;;;;;;;;;;;12.28;81.19;98644.31;3524103;28;20432;-42
2021/05/14 02:09:29;;;;;;;;;;;;;;;12.27;80.94;98637.38;3525720;28;19934;-48
2021/05/14 02:11:10;;;;;;;;;;;;;;;12.28;80.99;98635.66;3524122;28;19966;-46
2021/05/14 02:12:52;;;;;;;;;;;;;;;12.28;80.96;98631.31;3525477;28;19935;-48
2021/05/14 02:14:33;;;;;;;;;;;;;;;12.28;80.94;98625.25;3521652;28;20046;-42
2021/05/14 02:16:14;;;;;;;;;;;;;;;12.28;81.01;98626.09;3524523;28;19939;-42
2021/05/14 02:17:55;;;;;;;;;;;;;;;12.29;80.92;98626.97;3525090;28;19935;-42
2021/05/14 02:19:36;;;;;;;;;;;;;;;12.29;80.66;98626.97;3524253;28;20043;-42
2021/05/14 02:21:18;;;;;;;;;;;;;;;12.28;80.50;98626.09;3525376;28;20470;-47
2021/05/14 02:22:59;;;;;;;;;;;;;;;12.29;80.55;98627.81;3524125;28;20004;-43
2021/05/14 02:24:41;;;;;;;;;;;;;;;12.30;80.44;98626.94;3524506;28;20457;-42
2021/05/14 02:26:22;;;;;;;;;;;;;;;12.32;80.31;98629.53;3523933;28;19959;-42
2021/05/14 02:28:03;;;;;;;;;;;;;;;12.32;80.28;98622.59;3524322;28;19928;-42
2021/05/14 02:29:46;;;;;;;;;;;;;;;12.33;80.56;98619.13;3524051;28;19928;-46
2021/05/14 02:31:27;;;;;;;;;;;;;;;12.35;80.78;98621.72;3524234;28;19966;-46
2021/05/14 02:33:09;;;;;;;;;;;;;;;12.37;80.86;98625.16;3524949;28;19931;-48
2021/05/14 02:34:50;;;;;;;;;;;;;;;12.37;80.00;98619.94;3523993;28;19927;-47
2021/05/14 02:36:32;;;;;;;;;;;;;;;12.36;79.71;98618.22;3525164;28;19928;-47
2021/05/14 02:38:13;;;;;;;;;;;;;;;12.36;79.81;98620.81;3524609;28;20376;-42
2021/05/14 02:39:54;;;;;;;;;;;;;;;12.37;80.06;98614.75;3524794;28;19928;-47
2021/05/14 02:41:36;;;;;;;;;;;;;;;12.38;79.71;98616.47;3524389;28;19928;-47
2021/05/14 02:43:17;;;;;;;;;;;;;;;12.38;79.68;98609.53;3524272;28;19967;-42
2021/05/14 02:44:58;;;;;;;;;;;;;;;12.38;79.63;98608.66;3524026;28;19939;-44
2021/05/14 02:46:41;;;;;;;;;;;;;;;12.38;79.76;98608.66;3523378;28;20404;-43
2021/05/14 02:48:22;;;;;;;;;;;;;;;12.37;79.59;98607.81;3525116;28;20346;-42
2021/05/14 02:50:04;;;;;;;;;;;;;;;12.40;79.49;98609.53;3523920;28;19932;-48
2021/05/14 02:51:46;;;;;;;;;;;;;;;12.39;79.29;98613.84;3524677;28;19931;-42
2021/05/14 02:53:28;;;;;;;;;;;;;;;12.41;79.62;98615.56;3524200;28;19934;-42
2021/05/14 02:55:10;;;;;;;;;;;;;;;12.40;79.41;98614.72;3524117;28;20012;-42
2021/05/14 02:56:51;;;;;;;;;;;;;;;12.41;79.72;98613.84;3523673;28;19928;-42
2021/05/14 02:58:32;;;;;;;;;;;;;;;12.41;79.36;98616.44;3524222;28;19980;-47
2021/05/14 03:00:14;;;;;;;;;;;;;;;12.42;79.67;98609.47;3525122;28;19980;-47
2021/05/14 03:01:56;;;;;;;;;;;;;;;12.44;79.43;98612.94;3524178;28;19943;-47
2021/05/14 03:03:38;;;;;;;;;;;;;;;12.44;79.21;98612.94;3524536;28;20058;-47
2021/05/14 03:05:19;;;;;;;;;;;;;;;12.47;79.42;98611.19;3524969;28;19967;-47
2021/05/14 03:07:01;;;;;;;;;;;;;;;12.49;79.22;98611.16;3523755;28;20364;-43
2021/05/14 03:08:43;;;;;;;;;;;;;;;12.51;79.28;98609.41;3523748;28;20397;-49
2021/05/14 03:10:24;;;;;;;;;;;;;;;12.53;79.20;98618.03;3523585;28;19967;-42
2021/05/14 03:12:05;;;;;;;;;;;;;;;12.54;78.88;98607.63;3524651;28;19928;-42
2021/05/14 03:13:46;;;;;;;;;;;;;;;12.57;78.88;98604.13;3520947;28;19928;-42
2021/05/14 03:15:28;;;;;;;;;;;;;;;12.60;78.72;98601.47;3524835;28;19927;-42
2021/05/14 03:17:09;;;;;;;;;;;;;;;12.63;78.79;98604.06;3524372;28;19928;-42
2021/05/14 03:18:50;;;;;;;;;;;;;;;12.67;78.61;98608.34;3523911;28;19932;-47
2021/05/14 03:20:31;;;;;;;;;;;;;;;12.69;78.60;98609.16;3524611;28;19999;-48
2021/05/14 03:22:13;;;;;;;;;;;;;;;12.72;78.40;98609.13;3524393;28;19931;-45
2021/05/14 03:23:54;;;;;;;;;;;;;;;12.73;78.32;98607.41;3524644;28;19927;-42
2021/05/14 03:25:35;;;;;;;;;;;;;;;12.75;78.13;98608.22;3524013;28;20089;-42
2021/05/14 03:27:17;;;;;;;;;;;;;;;12.77;78.16;98611.69;3525055;28;19935;-42
2021/05/14 03:28:58;;;;;;;;;;;;;;;12.78;78.03;98610.81;3524225;28;19970;-44
2021/05/14 03:30:40;;;;;;;;;;;;;;;12.79;78.03;98612.53;3523790;28;19950;-42
2021/05/14 03:32:21;;;;;;;;;;;;;;;12.81;77.99;98615.97;3524537;28;19935;-48
2021/05/14 03:34:02;;;;;;;;;;;;;;;12.84;78.21;98609.84;3523355;28;19928;-47
2021/05/14 03:35:44;;;;;;;;;;;;;;;12.87;78.20;98615.88;3524650;28;19928;-42
2021/05/14 03:37:26;;;;;;;;;;;;;;;12.89;78.33;98619.31;3528086;28;19928;-48
2021/05/14 03:39:09;;;;;;;;;;;;;;;12.90;78.24;98621.09;3528816;28;20063;-46
2021/05/14 03:40:50;;;;;;;;;;;;;;;12.91;78.00;98612.41;3527977;28;19928;-42
2021/05/14 03:42:31;;;;;;;;;;;;;;;12.93;77.97;98615.00;3528035;28;20432;-42
2021/05/14 03:44:12;;;;;;;;;;;;;;;12.94;78.20;98616.72;3529237;28;19949;-42
2021/05/14 03:45:54;;;;;;;;;;;;;;;12.95;77.95;98616.69;3528207;28;20396;-47
2021/05/14 03:47:35;;;;;;;;;;;;;;;12.97;77.82;98618.44;3529436;28;19927;-42
2021/05/14 03:49:16;;;;;;;;;;;;;;;12.97;78.24;98621.88;3528009;28;20289;-42
2021/05/14 03:50:57;;;;;;;;;;;;;;;12.99;78.04;98617.50;3529313;28;19927;-42
2021/05/14 03:52:39;;;;;;;;;;;;;;;12.99;77.62;98624.47;3528550;28;20399;-47
2021/05/14 03:54:21;;;;;;;;;;;;;;;13.00;78.01;98614.03;3528039;28;20036;-46
2021/05/14 03:56:02;;;;;;;;;;;;;;;13.01;77.81;98623.56;3528913;28;20375;-47
2021/05/14 03:57:43;;;;;;;;;;;;;;;13.03;77.68;98623.53;3528471;28;19974;-43
2021/05/14 03:59:24;;;;;;;;;;;;;;;13.03;77.82;98619.19;3529105;28;20391;-42
2021/05/14 04:01:06;;;;;;;;;;;;;;;13.05;77.87;98621.78;3527894;28;19966;-43
2021/05/14 04:02:47;;;;;;;;;;;;;;;13.06;77.84;98615.69;3529319;28;19927;-46
2021/05/14 04:04:28;;;;;;;;;;;;;;;13.07;77.79;98617.41;3528354;28;19982;-48
2021/05/14 04:06:09;;;;;;;;;;;;;;;13.08;77.88;98617.38;3527795;28;19932;-47
2021/05/14 04:07:51;;;;;;;;;;;;;;;13.11;78.27;98619.94;3528731;28;19938;-47
2021/05/14 04:09:34;;;;;;;;;;;;;;;13.13;77.57;98615.59;3527650;28;19983;-46
2021/05/14 04:11:31;;;;;;;;;;;;;;;13.16;77.17;98617.28;3529094;28;20353;-45
2021/05/14 04:15:13;;;;;;;;;;;;;;;13.26;77.17;98613.66;3528440;28;19927;-46
2021/05/14 04:16:54;;;;;;;;;;;;;;;13.32;76.62;98612.72;3528428;28;20316;-48
2021/05/14 04:18:37;;;;;;;;;;;;;;;13.36;77.04;98609.19;3527519;28;19989;-47
2021/05/14 04:20:18;;;;;;;;;;;;;;;13.41;76.92;98607.38;3528795;28;19934;-42
2021/05/14 04:22:00;;;;;;;;;;;;;;;13.46;76.90;98608.19;3527913;28;19931;-42
2021/05/14 04:23:42;;;;;;;;;;;;;;;13.52;76.88;98607.22;3528986;28;19927;-46
2021/05/14 04:25:23;;;;;;;;;;;;;;;13.59;76.65;98610.59;3528061;28;19928;-47
2021/05/14 04:27:04;;;;;;;;;;;;;;;13.64;76.29;98606.16;3527609;28;19932;-43
2021/05/14 04:28:45;;;;;;;;;;;;;;;13.68;75.83;98603.47;3528735;28;19970;-43
2021/05/14 04:30:28;;;;;;;;;;;;;;;13.73;75.93;98599.94;3528006;28;19932;-42
2021/05/14 04:32:09;;;;;;;;;;;;;;;13.78;75.02;98606.81;3529462;28;19971;-42
2021/05/14 04:33:50;;;;;;;;;;;;;;;13.84;74.76;98611.03;3527582;28;20025;-46
2021/05/14 04:35:31;;;;;;;;;;;;;;;13.89;74.62;98604.88;3528311;28;20300;-47
2021/05/14 04:37:13;;;;;;;;;;;;;;;13.96;74.65;98604.78;3527907;28;19928;-45
2021/05/14 04:38:55;;;;;;;;;;;;;;;14.02;74.92;98608.13;3527871;28;19927;-47
2021/05/14 04:40:36;;;;;;;;;;;;;;;14.09;74.83;98606.25;3528813;28;19928;-47
2021/05/14 04:42:17;;;;;;;;;;;;;;;14.15;74.40;98606.16;3528016;28;19971;-47
2021/05/14 04:43:59;;;;;;;;;;;;;;;14.25;73.79;98599.03;3529141;28;19953;-47
2021/05/14 04:45:40;;;;;;;;;;;;;;;14.40;73.82;98597.91;3527980;28;19935;-43
2021/05/14 04:47:21;;;;;;;;;;;;;;;14.49;73.25;98595.13;3528811;28;20312;-43
2021/05/14 04:49:03;;;;;;;;;;;;;;;14.58;72.95;98592.31;3524053;28;20300;-42
2021/05/14 04:50:44;;;;;;;;;;;;;;;14.68;72.52;98592.13;3525146;28;19927;-47
2021/05/14 04:52:26;;;;;;;;;;;;;;;14.78;72.42;98599.78;3513044;28;19971;-46
2021/05/14 04:54:08;;;;;;;;;;;;;;;14.92;72.63;98591.63;3522312;28;19928;-42
2021/05/14 04:55:49;;;;;;;;;;;;;;;15.06;72.18;98601.78;3527354;28;19932;-43
2021/05/14 04:57:30;;;;;;;;;;;;;;;15.19;71.00;98594.56;3524530;28;20018;-43
2021/05/14 04:59:11;;;;;;;;;;;;;;;15.28;70.46;98594.34;3526845;28;19929;-47
2021/05/14 05:00:52;;;;;;;;;;;;;;;15.35;70.36;98587.22;3526371;28;20411;-43
2021/05/14 05:02:36;;;;;;;;;;;;;;;15.43;68.01;98589.66;3525666;28;19928;-42
2021/05/14 05:04:18;;;;;;;;;;;;;;;15.54;69.04;98588.50;3513106;28;19954;-46
2021/05/14 05:05:59;;;;;;;;;;;;;;;15.62;68.90;98579.66;3521197;28;19931;-48
2021/05/14 05:07:40;;;;;;;;;;;;;;;15.70;68.40;98582.91;3526622;28;19927;-46
2021/05/14 05:09:22;;;;;;;;;;;;;;;15.79;68.31;98582.72;3524933;28;20430;-46
2021/05/14 05:11:03;;;;;;;;;;;;;;;15.82;68.23;98581.75;3525717;28;20021;-43
2021/05/14 05:12:44;;;;;;;;;;;;;;;15.91;68.21;98585.03;3526228;28;20350;-46
2021/05/14 05:14:25;;;;;;;;;;;;;;;16.02;67.57;98578.63;3518574;28;19949;-44
2021/05/14 05:16:08;;;;;;;;;;;;;;;16.08;67.12;98575.88;3526032;28;19931;-43
2021/05/14 05:17:48;;;;;;;;;;;;;;;16.19;67.42;98575.56;3525602;28;19932;-43
2021/05/14 05:19:30;;;;;;;;;;;;;;;16.29;66.79;98566.59;3527375;28;20453;-46
2021/05/14 05:21:11;;;;;;;;;;;;;;;16.38;66.07;98571.56;3525748;28;19927;-46
2021/05/14 05:22:52;;;;;;;;;;;;;;;16.47;66.03;98573.06;3525261;28;20520;-48
2021/05/14 05:24:34;;;;;;;;;;;;;;;16.53;65.97;98570.28;3526061;28;20378;-44
2021/05/14 05:26:15;;;;;;;;;;;;;;;16.55;65.96;98573.72;3525067;28;20403;-45
2021/05/14 05:27:56;;;;;;;;;;;;;;;16.61;65.42;98564.81;3526116;28;19979;-45
2021/05/14 05:29:37;;;;;;;;;;;;;;;16.65;65.67;98564.72;3524838;28;20316;-43
2021/05/14 05:31:18;;;;;;;;;;;;;;;16.60;65.56;98570.94;3526171;28;19936;-45
2021/05/14 05:33:00;;;;;;;;;;;;;;;16.52;65.46;98569.41;3524989;28;20331;-44
2021/05/14 05:34:42;;;;;;;;;;;;;;;16.49;66.33;98573.88;3525493;28;19931;-42
2021/05/14 05:36:23;;;;;;;;;;;;;;;16.41;65.23;98566.25;3525524;28;19955;-43
2021/05/14 05:38:13;;;;;;;;;;;;;;;16.38;66.02;98565.47;3526037;28;19935;-43
2021/05/14 05:39:55;;;;;;;;;;;;;;;16.34;66.31;98568.16;3512376;28;19970;-45
2021/05/14 05:41:36;;;;;;;;;;;;;;;16.32;66.42;98563.88;3520992;28;19971;-45
2021/05/14 05:43:17;;;;;;;;;;;;;;;16.28;66.36;98560.50;3525620;28;20300;-46
2021/05/14 05:44:59;;;;;;;;;;;;;;;16.26;66.16;98567.50;3523849;28;20032;-45
2021/05/14 05:46:40;;;;;;;;;;;;;;;16.23;65.68;98559.75;3525050;28;19978;-43
2021/05/14 05:48:21;;;;;;;;;;;;;;;16.22;65.79;98567.66;3525275;28;19947;-43
2021/05/14 05:50:04;;;;;;;;;;;;;;;16.20;66.08;98565.06;3524624;28;19932;-46
2021/05/14 05:51:45;;;;;;;;;;;;;;;16.22;66.07;98560.66;3511605;28;20028;-45
2021/05/14 05:53:27;;;;;;;;;;;;;;;16.29;66.26;98567.44;3521066;28;19935;-46
2021/05/14 05:55:09;;;;;;;;;;;;;;;16.39;66.32;98564.56;3525953;28;19928;-43
2021/05/14 05:56:50;;;;;;;;;;;;;;;16.48;66.18;98564.31;3524787;28;19934;-43
2021/05/14 05:58:32;;;;;;;;;;;;;;;16.58;65.58;98560.50;3524547;28;19935;-43
2021/05/14 06:00:14;;;;;;;;;;;;;;;16.69;64.44;98553.22;3524084;28;19935;-43
2021/05/14 06:01:55;;;;;;;;;;;;;;;16.83;65.44;98549.34;3524222;28;19928;-43
2021/05/14 06:03:37;;;;;;;;;;;;;;;16.98;64.75;98556.75;3511829;28;19927;-44
2021/05/14 06:05:18;;;;;;;;;;;;;;;17.15;63.75;98556.25;3521480;28;19928;-43
2021/05/14 06:06:59;;;;;;;;;;;;;;;17.29;62.60;98547.97;3526333;28;20490;-46
2021/05/14 06:08:41;;;;;;;;;;;;;;;17.44;62.26;98550.06;3524239;28;19927;-42
2021/05/14 06:10:23;;;;;;;;;;;;;;;17.53;62.52;98551.53;3525755;28;19946;-43
2021/05/14 06:12:05;;;;;;;;;;;;;;;17.59;61.62;98540.88;3526007;28;19971;-43
2021/05/14 06:13:46;;;;;;;;;;;;;;;17.66;61.84;98538.91;3523836;28;20384;-43
2021/05/14 06:15:27;;;;;;;;;;;;;;;17.79;62.17;98534.09;3525438;28;19927;-42
2021/05/14 06:17:12;;;;;;;;;;;;;;;17.93;61.46;98545.00;3524266;28;19977;-43
2021/05/14 06:18:57;;;;;;;;;;;;;;;18.08;61.02;98542.75;3525813;28;19927;-45
2021/05/14 06:20:41;;;;;;;;;;;;;;;18.24;60.63;98550.03;3523719;28;19931;-44
2021/05/14 06:22:22;;;;;;;;;;;;;;;18.35;60.49;98551.44;3524785;28;19939;-43
2021/05/14 06:24:04;;;;;;;;;;;;;;;18.48;60.70;98549.22;3524797;28;20065;-43
2021/05/14 06:25:46;;;;;;;;;;;;;;;18.55;60.00;98548.91;3524154;28;19935;-43
2021/05/14 06:27:27;;;;;;;;;;;;;;;18.56;60.24;98553.28;3525154;28;19934;-43
2021/05/14 06:29:08;;;;;;;;;;;;;;;18.56;60.22;98553.28;3523898;28;20379;-44
2021/05/14 06:30:49;;;;;;;;;;;;;;;18.56;60.38;98550.66;3524767;28;19931;-43
2021/05/14 06:32:31;;;;;;;;;;;;;;;18.60;60.90;98552.25;3524470;28;19934;-43
2021/05/14 06:34:12;;;;;;;;;;;;;;;18.60;58.98;98548.75;3524422;28;20044;-45
2021/05/14 06:35:53;;;;;;;;;;;;;;;18.66;60.59;98547.66;3524795;28;19982;-46
2021/05/14 06:37:37;;;;;;;;;;;;;;;18.70;59.68;98546.63;3523781;28;19931;-44
2021/05/14 06:39:18;;;;;;;;;;;;;;;18.80;59.71;98546.22;3525458;28;19935;-45
2021/05/14 06:41:00;;;;;;;;;;;;;;;19.01;59.25;98541.09;3523655;28;20428;-44
2021/05/14 06:42:41;;;;;;;;;;;;;;;19.27;59.25;98544.50;3524710;28;20300;-44
2021/05/14 06:44:23;;;;;;;;;;;;;;;19.54;58.95;98534.63;3523192;28;19928;-44
2021/05/14 06:46:04;;;;;;;;;;;;;;;19.72;56.80;98538.25;3524008;28;19927;-43
2021/05/14 06:47:49;;;;;;;;;;;;;;;19.75;57.32;98538.13;3524586;28;20443;-44
2021/05/14 06:49:30;;;;;;;;;;;;;;;19.84;57.89;98543.03;3523697;28;19942;-45
2021/05/14 06:51:11;;;;;;;;;;;;;;;19.91;56.76;98541.00;3525041;28;20309;-44
2021/05/14 06:52:52;;;;;;;;;;;;;;;19.92;56.32;98538.31;3523726;28;19973;-45
2021/05/14 06:54:34;;;;;;;;;;;;;;;19.85;54.96;98536.88;3524671;28;20384;-45
2021/05/14 06:56:15;;;;;;;;;;;;;;;19.78;54.25;98530.13;3524165;28;19982;-45
2021/05/14 06:57:57;;;;;;;;;;;;;;;19.75;55.70;98532.88;3523722;28;19928;-45
2021/05/14 06:59:38;;;;;;;;;;;;;;;19.78;55.79;98538.00;3524891;28;20020;-48
2021/05/14 07:01:19;;;;;;;;;;;;;;;19.84;55.81;98537.78;3523659;28;19938;-49
2021/05/14 07:03:00;;;;;;;;;;;;;;;19.94;55.56;98528.56;3525131;28;20029;-45
2021/05/14 07:04:41;;;;;;;;;;;;;;;20.08;54.63;98520.06;3524488;28;19928;-45
2021/05/14 07:06:23;;;;;;;;;;;;;;;20.24;53.38;98520.25;3524494;28;19927;-46
2021/05/14 07:08:04;;;;;;;;;;;;;;;20.38;54.52;98526.69;3524660;28;20300;-44
2021/05/14 07:09:46;;;;;;;;;;;;;;;20.49;53.52;98512.09;3524065;28;20080;-44
2021/05/14 07:11:29;;;;;;;;;;;;;;;20.66;53.95;98506.06;3524396;28;19974;-46
2021/05/14 07:13:10;;;;;;;;;;;;;;;20.80;52.29;98512.50;3522569;28;20457;-45
2021/05/14 07:14:51;;;;;;;;;;;;;;;20.94;51.71;98518.00;3525661;28;19962;-45
2021/05/14 07:16:32;;;;;;;;;;;;;;;21.08;51.46;98512.91;3524063;28;20067;-47
2021/05/14 07:18:14;;;;;;;;;;;;;;;21.15;49.29;98505.53;3524694;28;19935;-44
2021/05/14 07:19:56;;;;;;;;;;;;;;;21.11;51.15;98511.06;3523836;28;19939;-44
2021/05/14 07:21:38;;;;;;;;;;;;;;;21.07;51.34;98513.84;3523543;28;19927;-45
2021/05/14 07:23:19;;;;;;;;;;;;;;;20.95;48.29;98511.78;3523751;28;19935;-46
2021/05/14 07:25:00;;;;;;;;;;;;;;;20.78;48.94;98512.56;3523629;28;19927;-45
2021/05/14 07:26:42;;;;;;;;;;;;;;;20.77;51.11;98520.56;3524970;28;20436;-45
2021/05/14 07:28:23;;;;;;;;;;;;;;;20.78;50.91;98517.84;3523668;28;19959;-46
2021/05/14 07:30:05;;;;;;;;;;;;;;;20.85;50.59;98516.66;3524324;28;20016;-45
2021/05/14 07:31:47;;;;;;;;;;;;;;;21.02;50.29;98509.72;3523926;28;19993;-45
2021/05/14 07:33:28;;;;;;;;;;;;;;;21.18;50.48;98509.84;3523597;28;19949;-45
2021/05/14 07:35:09;;;;;;;;;;;;;;;21.22;50.53;98512.25;3525008;28;19976;-45
2021/05/14 07:36:51;;;;;;;;;;;;;;;21.17;49.57;98506.34;3523380;28;20350;-45
2021/05/14 07:38:32;;;;;;;;;;;;;;;21.09;48.33;98508.50;3525123;28;19966;-45
2021/05/14 07:40:13;;;;;;;;;;;;;;;20.88;46.28;98507.72;3523469;28;19964;-45
2021/05/14 07:41:55;;;;;;;;;;;;;;;20.72;48.22;98509.34;3523792;28;19971;-45
2021/05/14 07:43:36;;;;;;;;;;;;;;;20.68;47.52;98514.75;3524169;28;19966;-45
2021/05/14 07:45:17;;;;;;;;;;;;;;;20.54;47.94;98517.16;3523299;28;20368;-45
2021/05/14 07:47:15;;;;;;;;;;;;;;;20.44;49.83;98519.34;3510469;28;19935;-45
2021/05/14 07:48:56;;;;;;;;;;;;;;;20.40;51.04;98516.94;3519890;28;20384;-45
2021/05/14 07:50:37;;;;;;;;;;;;;;;20.40;50.61;98503.78;3523804;28;19931;-46
2021/05/14 07:52:18;;;;;;;;;;;;;;;20.44;50.54;98519.34;3523521;28;19927;-45
2021/05/14 07:53:59;;;;;;;;;;;;;;;20.47;47.75;98510.47;3523595;28;19927;-45
2021/05/14 07:55:41;;;;;;;;;;;;;;;20.44;48.40;98510.59;3524128;28;19928;-45
2021/05/14 07:57:23;;;;;;;;;;;;;;;20.30;47.89;98514.69;3523178;28;19928;-45
2021/05/14 07:59:06;;;;;;;;;;;;;;;20.18;49.30;98511.75;3510278;28;20438;-45
2021/05/14 08:00:49;;;;;;;;;;;;;;;20.10;48.76;98509.47;3520204;28;20273;-46
2021/05/14 08:02:30;;;;;;;;;;;;;;;20.03;50.76;98498.34;3523659;28;20304;-44
2021/05/14 08:04:11;;;;;;;;;;;;;;;20.03;51.71;98510.69;3523399;28;19935;-45
2021/05/14 08:05:52;;;;;;;;;;;;;;;20.00;52.26;98513.44;3523092;28;20331;-45
2021/05/14 08:07:33;;;;;;;;;;;;;;;19.97;52.25;98509.16;3523127;28;19983;-45
2021/05/14 08:09:19;;;;;;;;;;;;;;;19.94;52.23;98515.41;3523745;28;19935;-45
2021/05/14 08:11:00;;;;;;;;;;;;;;;19.91;52.29;98512.06;3510449;28;19970;-46
2021/05/14 08:12:42;;;;;;;;;;;;;;;19.88;52.68;98513.06;3519845;28;20312;-45
2021/05/14 08:14:32;;;;;;;;;;;;;;;19.81;52.97;98519.44;3522252;28;20304;-47
2021/05/14 08:16:13;;;;;;;;;;;;;;;19.77;53.42;98513.44;3523816;28;19978;-45
2021/05/14 08:17:54;;;;;;;;;;;;;;;19.72;53.51;98512.81;3523192;28;19935;-45
2021/05/14 08:19:35;;;;;;;;;;;;;;;19.67;52.78;98506.91;3523954;28;19978;-45
2021/05/14 08:21:16;;;;;;;;;;;;;;;19.60;52.70;98505.44;3522625;28;19927;-47
2021/05/14 08:22:58;;;;;;;;;;;;;;;19.54;52.43;98501.25;3524522;28;19967;-46
2021/05/14 08:24:39;;;;;;;;;;;;;;;19.48;53.86;98506.78;3525452;28;20451;-47
2021/05/14 08:26:20;;;;;;;;;;;;;;;19.48;54.20;98505.94;3526297;28;19927;-45
2021/05/14 08:28:02;;;;;;;;;;;;;;;19.49;54.06;98503.22;3526248;28;19932;-45
2021/05/14 08:29:43;;;;;;;;;;;;;;;19.53;53.01;98504.84;3526013;28;19935;-48
2021/05/14 08:31:24;;;;;;;;;;;;;;;19.59;53.97;98506.34;3526183;28;19927;-45
2021/05/14 08:33:05;;;;;;;;;;;;;;;19.64;54.48;98507.00;3525327;28;19927;-45
2021/05/14 08:34:46;;;;;;;;;;;;;;;19.68;53.91;98505.94;3526833;28;20309;-46
2021/05/14 08:36:28;;;;;;;;;;;;;;;19.77;54.60;98517.88;3525530;28;19967;-48
2021/05/14 08:38:09;;;;;;;;;;;;;;;19.85;54.99;98517.59;3526026;28;19928;-45
2021/05/14 08:39:50;;;;;;;;;;;;;;;19.85;53.54;98520.22;3525463;28;19973;-45
2021/05/14 08:41:34;;;;;;;;;;;;;;;19.86;54.12;98517.50;3525564;28;19927;-44
2021/05/14 08:43:16;;;;;;;;;;;;;;;20.00;54.77;98523.97;3526248;28;19927;-44
2021/05/14 08:44:57;;;;;;;;;;;;;;;20.15;54.65;98518.03;3525064;28;19975;-46
2021/05/14 08:46:39;;;;;;;;;;;;;;;20.27;53.84;98517.50;3526087;28;19989;-44
2021/05/14 08:48:29;;;;;;;;;;;;;;;20.36;52.56;98523.25;3525047;28;19927;-48
2021/05/14 08:50:11;;;;;;;;;;;;;;;20.39;52.99;98526.59;3525573;28;19981;-44
2021/05/14 08:51:53;;;;;;;;;;;;;;;20.36;52.22;98524.13;3525743;28;19957;-45